Time;durP1;ratioP1;P1;durP2;ratioP2;P2;SDS_P1;SDS_P2;PMS_P1;PMS_P2;Temp;Humidity;BMP_temperature;BMP_pressure;BME280_temperature;BME280_humidity;BME280_pressure;Samples;Min_cycle;Max_cycle;Signal;HPM_P1;HPM_P2
2021/05/04 00:02:22;;;;;;;6.25;1.70;;;;;;;11.77;43.42;99026.19;5017296;28;20066;-73
2021/05/04 00:04:48;;;;;;;3.58;2.08;;;;;;;11.79;43.49;99009.03;5017194;28;20053;-72
2021/05/04 00:07:14;;;;;;;1.95;1.50;;;;;;;11.84;43.25;98994.41;5032639;28;20062;-71
2021/05/04 00:09:42;;;;;;;6.40;1.63;;;;;;;11.90;42.82;99005.47;5017201;28;20647;-72
2021/05/04 00:12:08;;;;;;;11.00;2.38;;;;;;;11.89;43.06;98998.41;5017130;28;20046;-72
2021/05/04 00:14:35;;;;;;;4.25;1.70;;;;;;;11.92;42.72;98986.59;5017030;28;20126;-72
2021/05/04 00:17:04;;;;;;;2.20;1.20;;;;;;;11.99;42.48;98986.91;5017093;28;20053;-71
2021/05/04 00:19:31;;;;;;;5.13;1.60;;;;;;;11.96;42.70;98977.34;5017108;28;20056;-70
2021/05/04 00:21:58;;;;;;;7.03;1.70;;;;;;;11.94;42.52;98964.09;5016903;28;20427;-72
2021/05/04 00:24:24;;;;;;;7.28;1.80;;;;;;;12.07;42.21;98971.94;5016055;28;20111;-70
2021/05/04 00:26:50;;;;;;;11.40;2.40;;;;;;;12.05;42.18;98954.34;5016968;28;20057;-72
2021/05/04 00:29:16;;;;;;;8.07;1.73;;;;;;;12.12;41.87;98949.28;5016998;28;20089;-73
2021/05/04 00:31:42;;;;;;;4.03;1.40;;;;;;;12.09;42.12;98955.75;5015879;28;20055;-70
2021/05/04 00:34:09;;;;;;;7.20;1.63;;;;;;;12.09;42.13;98945.91;5015813;28;20077;-71
2021/05/04 00:36:35;;;;;;;3.95;1.33;;;;;;;12.09;42.27;98923.66;5032009;28;20054;-73
2021/05/04 00:39:01;;;;;;;9.35;1.88;;;;;;;12.08;41.99;98930.84;5016974;28;20057;-71
2021/05/04 00:41:27;;;;;;;2.95;1.50;;;;;;;12.09;42.02;98935.22;5016967;28;20046;-71
2021/05/04 00:43:54;;;;;;;13.13;1.80;;;;;;;12.09;41.18;98916.50;5015542;28;20046;-71
2021/05/04 00:46:20;;;;;;;14.02;1.75;;;;;;;12.18;41.46;98922.00;5015625;28;20127;-69
2021/05/04 00:48:46;;;;;;;10.05;1.33;;;;;;;12.13;41.70;98921.56;5016418;28;20112;-71
2021/05/04 00:51:12;;;;;;;4.78;1.27;;;;;;;12.07;41.55;98921.13;5016571;28;20057;-72
2021/05/04 00:53:39;;;;;;;3.47;1.60;;;;;;;12.06;41.24;98916.78;5031828;28;20054;-71
2021/05/04 00:56:06;;;;;;;17.35;1.70;;;;;;;12.14;40.86;98901.88;5015560;28;20490;-70
2021/05/04 00:58:36;;;;;;;2.35;1.35;;;;;;;12.03;40.93;98898.31;5016703;28;20435;-70
2021/05/04 01:01:03;;;;;;;5.20;1.40;;;;;;;12.11;40.57;98908.34;5016885;28;20057;-72
2021/05/04 01:03:29;;;;;;;10.88;2.05;;;;;;;12.08;40.69;98903.25;5015404;28;20291;-71
2021/05/04 01:05:55;;;;;;;4.93;1.50;;;;;;;12.08;40.30;98905.91;5016953;28;20116;-70
2021/05/04 01:08:22;;;;;;;4.88;1.45;;;;;;;12.07;40.18;98888.19;5017810;28;20156;-72
2021/05/04 01:10:48;;;;;;;5.78;1.05;;;;;;;12.07;39.32;98882.84;5031362;28;20096;-72
2021/05/04 01:13:14;;;;;;;6.75;1.17;;;;;;;12.06;39.64;98890.03;5016342;28;20045;-70
2021/05/04 01:15:41;;;;;;;4.55;1.10;;;;;;;12.03;39.12;98878.69;4998879;28;20100;-71
2021/05/04 01:18:08;;;;;;;6.70;1.40;;;;;;;12.01;38.76;98872.66;5016096;28;20103;-72
2021/05/04 01:20:36;;;;;;;1.88;1.10;;;;;;;12.02;37.91;98877.88;5014834;28;20054;-72
2021/05/04 01:23:03;;;;;;;7.47;1.20;;;;;;;12.01;37.67;98862.81;5016120;28;20080;-71
2021/05/04 01:25:30;;;;;;;3.60;1.23;;;;;;;12.01;37.12;98849.44;5015911;28;20484;-72
2021/05/04 01:27:56;;;;;;;6.70;1.50;;;;;;;11.99;36.69;98843.34;5015922;28;20062;-71
2021/05/04 01:30:23;;;;;;;13.57;1.73;;;;;;;11.97;37.49;98845.31;5015221;28;20058;-71
2021/05/04 01:32:49;;;;;;;20.50;1.90;;;;;;;11.70;40.04;98833.41;5015735;28;20129;-72
2021/05/04 01:35:16;;;;;;;11.80;1.40;;;;;;;11.45;43.03;98880.97;5030985;28;20100;-70
2021/05/04 01:37:44;;;;;;;4.25;1.20;;;;;;;10.95;45.56;98849.56;5015920;28;20088;-70
2021/05/04 01:40:13;;;;;;;6.40;1.38;;;;;;;10.55;47.96;98857.22;5015640;28;20056;-71
2021/05/04 01:42:43;;;;;;;4.50;1.20;;;;;;;10.22;53.19;98863.44;5015878;28;20053;-72
2021/05/04 01:45:10;;;;;;;3.25;1.23;;;;;;;9.94;53.34;98839.84;5014607;28;20061;-70
2021/05/04 01:47:37;;;;;;;5.93;1.30;;;;;;;9.85;52.83;98861.88;5015526;28;20050;-69
2021/05/04 01:50:03;;;;;;;13.93;2.88;;;;;;;9.51;56.17;98855.59;5015657;28;20153;-72
2021/05/04 01:52:32;;;;;;;5.25;1.33;;;;;;;9.20;59.31;98833.13;5015627;28;20065;-72
2021/05/04 01:54:59;;;;;;;5.55;1.65;;;;;;;8.82;62.69;98819.97;5030273;28;20132;-71
2021/05/04 01:57:26;;;;;;;4.32;0.95;;;;;;;8.64;62.58;98842.63;5015908;28;20465;-72
2021/05/04 01:59:53;;;;;;;2.67;1.23;;;;;;;8.46;65.81;98824.38;5015822;28;20066;-69
2021/05/04 02:02:19;;;;;;;3.70;1.20;;;;;;;8.28;67.43;98823.91;5016028;28;20374;-71
2021/05/04 02:04:46;;;;;;;6.10;1.67;;;;;;;8.25;66.34;98832.97;5015523;28;20053;-72
2021/05/04 02:07:12;;;;;;;8.60;1.25;;;;;;;8.13;68.05;98813.44;5015658;28;20049;-72
2021/05/04 02:09:39;;;;;;;5.03;1.40;;;;;;;7.99;68.65;98806.47;5014215;28;20408;-69
2021/05/04 02:12:05;;;;;;;6.72;1.20;;;;;;;7.95;68.36;98802.34;5014367;28;20133;-71
2021/05/04 02:14:31;;;;;;;4.75;1.38;;;;;;;7.88;68.53;98787.78;5015196;28;20155;-71
2021/05/04 02:16:58;;;;;;;8.77;1.48;;;;;;;7.75;69.61;98786.00;5015483;28;20079;-70
2021/05/04 02:19:24;;;;;;;7.28;1.75;;;;;;;7.75;70.79;98817.88;5015246;28;20061;-72
2021/05/04 02:21:50;;;;;;;1.65;1.30;;;;;;;7.59;72.22;98806.66;5015488;28;20119;-71
2021/05/04 02:24:16;;;;;;;2.15;1.13;;;;;;;7.61;69.27;98804.75;5015307;28;20053;-71
2021/05/04 02:26:42;;;;;;;5.72;1.60;;;;;;;7.47;74.04;98793.28;5030554;28;20056;-70
2021/05/04 02:29:08;;;;;;;6.63;1.67;;;;;;;7.47;73.95;98787.97;5015184;28;20104;-70
2021/05/04 02:31:34;;;;;;;6.03;1.40;;;;;;;7.40;74.15;98764.66;5015186;28;20053;-73
2021/05/04 02:34:01;;;;;;;2.90;1.52;;;;;;;7.38;75.17;98771.84;5030614;28;20054;-73
2021/05/04 02:36:27;;;;;;;2.15;1.52;;;;;;;7.27;76.09;98760.19;5030185;28;20112;-72
2021/05/04 02:38:53;;;;;;;7.80;1.60;;;;;;;7.22;75.66;98766.75;5014298;28;20056;-73
2021/05/04 02:41:20;;;;;;;5.63;2.92;;;;;;;7.16;77.38;98760.94;5015018;28;20046;-72
2021/05/04 02:43:46;;;;;;;2.10;1.50;;;;;;;7.07;75.55;98750.94;5018780;28;20127;-72
2021/05/04 02:46:12;;;;;;;4.30;1.80;;;;;;;7.12;76.56;98751.50;5019064;28;20057;-72
2021/05/04 02:48:40;;;;;;;5.03;1.80;;;;;;;7.08;76.28;98742.03;5019019;28;20436;-71
2021/05/04 02:51:08;;;;;;;4.22;1.48;;;;;;;7.02;76.14;98740.66;5033977;28;20054;-72
2021/05/04 02:53:34;;;;;;;4.70;1.65;;;;;;;7.14;76.22;98733.66;5018763;28;20054;-70
2021/05/04 02:56:02;;;;;;;3.03;1.58;;;;;;;7.16;74.95;98725.59;5017595;28;20046;-72
2021/05/04 02:58:29;;;;;;;2.72;1.50;;;;;;;7.17;74.41;98722.84;5017537;28;20054;-71
2021/05/04 03:00:58;;;;;;;2.28;2.08;;;;;;;7.23;75.23;98704.78;5033527;28;20057;-71
2021/05/04 03:03:24;;;;;;;5.00;1.40;;;;;;;7.26;73.12;98704.56;5034036;28;20050;-71
2021/05/04 03:05:52;;;;;;;2.97;1.50;;;;;;;7.33;73.23;98692.56;5033805;28;20058;-70
2021/05/04 03:08:18;;;;;;;4.38;1.40;;;;;;;7.43;71.92;98698.06;5018520;28;20062;-70
2021/05/04 03:10:44;;;;;;;6.38;1.83;;;;;;;7.47;72.09;98711.00;5017343;28;20109;-73
2021/05/04 03:13:10;;;;;;;3.35;1.05;;;;;;;7.54;70.97;98710.56;5018305;28;20427;-73
2021/05/04 03:15:37;;;;;;;4.47;1.48;;;;;;;7.52;71.25;98721.28;5018735;28;20112;-71
2021/05/04 03:18:03;;;;;;;2.92;1.42;;;;;;;7.58;73.50;98698.75;5017204;28;20455;-72
2021/05/04 03:20:36;;;;;;;3.92;1.50;;;;;;;7.63;71.72;98715.19;5018243;28;20108;-73
2021/05/04 03:23:02;;;;;;;2.17;1.38;;;;;;;7.67;71.48;98715.84;5017120;28;20058;-71
2021/05/04 03:25:28;;;;;;;3.40;1.70;;;;;;;7.64;72.45;98710.75;5018172;28;20057;-72
2021/05/04 03:27:57;;;;;;;3.65;1.30;;;;;;;7.59;73.30;98701.28;5017236;28;20057;-73
2021/05/04 03:30:25;;;;;;;2.50;1.63;;;;;;;7.42;74.56;98689.22;5018252;28;20049;-72
2021/05/04 03:32:51;;;;;;;1.42;1.20;;;;;;;7.41;73.88;98676.91;5018009;28;20053;-73
2021/05/04 03:35:18;;;;;;;5.72;1.50;;;;;;;7.44;74.64;98676.72;5017921;28;20085;-72
2021/05/04 03:37:45;;;;;;;3.28;1.40;;;;;;;7.46;73.98;98661.50;5017879;28;20100;-73
2021/05/04 03:40:12;;;;;;;2.47;1.30;;;;;;;7.52;73.01;98656.72;5017818;28;20407;-71
2021/05/04 03:42:38;;;;;;;3.38;1.33;;;;;;;7.52;73.42;98648.75;5017714;28;20066;-70
2021/05/04 03:45:06;;;;;;;6.72;1.30;;;;;;;7.59;73.81;98652.66;5018509;28;20050;-71
2021/05/04 03:47:32;;;;;;;1.50;1.30;;;;;;;7.65;72.84;98640.72;5018047;28;20131;-73
2021/05/04 03:49:58;;;;;;;3.65;1.60;;;;;;;7.77;72.15;98638.97;5018121;28;20394;-72
2021/05/04 03:52:25;;;;;;;2.60;1.40;;;;;;;7.75;72.39;98631.16;5033777;28;20046;-71
2021/05/04 03:54:51;;;;;;;4.20;1.45;;;;;;;7.77;72.17;98644.28;5017952;28;20049;-73
2021/05/04 03:57:17;;;;;;;3.47;1.50;;;;;;;7.72;72.51;98621.59;5017775;28;20462;-73
2021/05/04 03:59:43;;;;;;;2.40;1.60;;;;;;;7.70;72.09;98636.81;5018582;28;20050;-71
2021/05/04 04:02:09;;;;;;;3.70;1.67;;;;;;;7.73;71.17;98639.22;5016554;28;20065;-73
2021/05/04 04:04:36;;;;;;;5.38;1.50;;;;;;;7.72;71.90;98626.91;5017633;28;20057;-72
2021/05/04 04:07:02;;;;;;;2.17;1.55;;;;;;;7.77;72.03;98639.84;5032901;28;20054;-71
2021/05/04 04:09:28;;;;;;;3.35;1.40;;;;;;;7.79;71.48;98631.75;5017975;28;20049;-73
2021/05/04 04:11:54;;;;;;;5.50;1.55;;;;;;;7.77;72.79;98641.63;5017800;28;20049;-71
2021/05/04 04:14:21;;;;;;;2.63;1.45;;;;;;;7.74;71.98;98630.28;5018048;28;20046;-71
2021/05/04 04:16:47;;;;;;;3.05;2.55;;;;;;;7.70;72.53;98612.91;5018083;28;20061;-72
2021/05/04 04:19:13;;;;;;;4.07;1.20;;;;;;;7.80;72.03;98628.13;5032817;28;20108;-72
2021/05/04 04:21:39;;;;;;;2.83;1.42;;;;;;;7.80;72.08;98647.56;5017062;28;20046;-71
2021/05/04 04:24:06;;;;;;;1.75;1.20;;;;;;;7.78;72.80;98630.06;5016838;28;20061;-72
2021/05/04 04:26:32;;;;;;;5.70;1.70;;;;;;;7.82;73.01;98608.47;5017185;28;20124;-70
2021/05/04 04:28:58;;;;;;;3.53;1.20;;;;;;;7.82;72.96;98612.94;5017320;28;20104;-73
2021/05/04 04:31:25;;;;;;;6.45;1.77;;;;;;;7.81;72.98;98601.47;5016898;28;20049;-72
2021/05/04 04:33:51;;;;;;;5.40;1.20;;;;;;;7.82;73.58;98595.19;5032560;28;20050;-72
2021/05/04 04:36:17;;;;;;;4.18;1.38;;;;;;;7.79;73.66;98590.09;5017095;28;20184;-72
2021/05/04 04:38:43;;;;;;;7.60;1.17;;;;;;;7.84;73.70;98589.78;5000104;28;20058;-73
2021/05/04 04:41:25;;;;;;;4.30;1.52;;;;;;;7.82;73.59;98578.41;5017135;28;20103;-71
2021/05/04 04:43:51;;;;;;;5.32;1.38;;;;;;;7.87;73.52;98565.63;5016422;28;20435;-73
2021/05/04 04:46:18;;;;;;;4.50;1.52;;;;;;;7.87;73.48;98571.78;5016997;28;20061;-72
2021/05/04 04:48:44;;;;;;;2.60;1.55;;;;;;;7.90;74.00;98572.53;5016528;28;20046;-71
2021/05/04 04:51:10;;;;;;;3.05;1.60;;;;;;;7.88;73.97;98562.00;5015715;28;20057;-70
2021/05/04 04:53:36;;;;;;;3.38;1.70;;;;;;;7.91;73.76;98567.09;5016354;28;20058;-70
2021/05/04 04:56:03;;;;;;;1.60;1.20;;;;;;;7.89;74.48;98553.06;5015535;28;20061;-69
2021/05/04 04:58:29;;;;;;;1.38;1.08;;;;;;;7.90;73.77;98543.28;5016544;28;20092;-72
2021/05/04 05:00:55;;;;;;;3.47;1.40;;;;;;;7.94;73.89;98561.53;5016120;28;20056;-72
2021/05/04 05:03:24;;;;;;;4.97;1.40;;;;;;;8.00;74.29;98563.72;5016317;28;20365;-72
2021/05/04 05:05:53;;;;;;;3.97;1.40;;;;;;;7.94;73.27;98560.69;5015437;28;20443;-70
2021/05/04 05:08:20;;;;;;;3.40;1.52;;;;;;;7.99;73.39;98569.16;5015401;28;20049;-70
2021/05/04 05:10:46;;;;;;;3.35;1.40;;;;;;;7.94;73.88;98553.56;5016298;28;20057;-71
2021/05/04 05:13:12;;;;;;;3.65;1.52;;;;;;;7.95;74.26;98573.84;5031593;28;20049;-70
2021/05/04 05:15:40;;;;;;;2.60;1.40;;;;;;;7.92;74.55;98560.81;5016596;28;20398;-70
2021/05/04 05:18:07;;;;;;;2.28;1.45;;;;;;;7.98;74.12;98551.53;5016113;28;20072;-71
2021/05/04 05:20:35;;;;;;;2.90;1.45;;;;;;;7.98;74.71;98556.84;5016325;28;20054;-71
2021/05/04 05:23:02;;;;;;;1.92;1.60;;;;;;;7.93;74.45;98537.75;5015113;28;20112;-69
2021/05/04 05:25:29;;;;;;;2.45;1.63;;;;;;;8.05;74.69;98555.41;5015905;28;20054;-70
2021/05/04 05:27:55;;;;;;;3.92;1.40;;;;;;;8.08;74.02;98541.03;5015066;28;20057;-69
2021/05/04 05:30:22;;;;;;;2.75;1.63;;;;;;;8.12;73.64;98547.81;5015924;28;20050;-72
2021/05/04 05:32:48;;;;;;;5.43;2.42;;;;;;;8.22;74.21;98547.97;5015880;28;20053;-71
2021/05/04 05:35:14;;;;;;;2.75;1.27;;;;;;;8.26;74.02;98552.06;5016055;28;20049;-72
2021/05/04 05:37:40;;;;;;;5.68;1.42;;;;;;;8.35;72.87;98542.53;5015750;28;20062;-72
2021/05/04 05:40:07;;;;;;;5.40;1.40;;;;;;;8.42;72.86;98549.06;5015866;28;20054;-71
2021/05/04 05:42:33;;;;;;;2.13;1.42;;;;;;;8.48;72.72;98550.38;5015662;28;20065;-72
2021/05/04 05:45:00;;;;;;;7.47;1.50;;;;;;;8.43;72.17;98525.00;5014605;28;20065;-73
2021/05/04 05:47:26;;;;;;;2.42;1.40;;;;;;;8.49;72.97;98544.13;5014599;28;20050;-71
2021/05/04 05:49:52;;;;;;;5.50;1.25;;;;;;;8.52;72.40;98560.72;5014657;28;20064;-72
2021/05/04 05:52:18;;;;;;;1.60;1.20;;;;;;;8.63;73.28;98554.53;5015721;28;20061;-72
2021/05/04 05:54:45;;;;;;;4.68;1.85;;;;;;;8.51;72.75;98543.03;5015524;28;20104;-71
2021/05/04 05:57:11;;;;;;;4.90;1.40;;;;;;;8.54;73.02;98571.19;5030833;28;20045;-72
2021/05/04 05:59:38;;;;;;;4.15;1.45;;;;;;;8.53;73.99;98556.22;5015478;28;20427;-71
2021/05/04 06:02:04;;;;;;;4.45;1.40;;;;;;;8.54;73.44;98552.59;5015302;28;20096;-70
2021/05/04 06:04:31;;;;;;;3.83;1.95;;;;;;;8.47;73.85;98546.03;5015388;28;20057;-72
2021/05/04 06:06:58;;;;;;;3.35;1.30;;;;;;;8.59;73.89;98542.44;5015449;28;20493;-71
2021/05/04 06:09:24;;;;;;;1.55;1.40;;;;;;;8.60;73.66;98530.84;5015553;28;20340;-71
2021/05/04 06:11:51;;;;;;;3.28;1.38;;;;;;;8.63;73.76;98549.22;5014563;28;20046;-72
2021/05/04 06:14:17;;;;;;;6.55;1.65;;;;;;;8.58;74.12;98539.91;5014302;28;20050;-73
2021/05/04 06:16:43;;;;;;;3.17;1.35;;;;;;;8.59;73.89;98544.25;5032950;28;20089;-72
2021/05/04 06:19:09;;;;;;;5.50;1.42;;;;;;;8.64;73.42;98536.75;5019460;28;20324;-73
2021/05/04 06:21:35;;;;;;;2.88;1.45;;;;;;;8.66;74.07;98543.66;5019363;28;20046;-73
2021/05/04 06:24:02;;;;;;;3.35;1.40;;;;;;;8.73;74.10;98520.09;5019323;28;20057;-71
2021/05/04 06:26:28;;;;;;;1.65;1.27;;;;;;;8.76;73.56;98514.50;5019103;28;20054;-72
2021/05/04 06:28:54;;;;;;;2.83;1.55;;;;;;;8.89;73.38;98513.53;5019425;28;20058;-73
2021/05/04 06:31:21;;;;;;;3.28;1.20;;;;;;;8.94;73.24;98535.28;5019371;28;20057;-73
2021/05/04 06:33:48;;;;;;;1.85;1.20;;;;;;;8.96;73.44;98525.38;5019317;28;20352;-73
2021/05/04 06:36:15;;;;;;;4.30;1.50;;;;;;;8.81;74.55;98517.66;5019163;28;20084;-73
2021/05/04 06:38:41;;;;;;;6.05;1.30;;;;;;;8.84;76.09;98513.91;5018000;28;20084;-72
2021/05/04 06:41:07;;;;;;;1.95;1.40;;;;;;;8.73;76.66;98509.44;5018063;28;20053;-71
2021/05/04 06:43:34;;;;;;;2.67;1.27;;;;;;;8.66;75.86;98502.94;5018929;28;20089;-73
2021/05/04 06:46:01;;;;;;;5.85;1.30;;;;;;;8.66;76.26;98486.97;5019073;28;20054;-70
2021/05/04 06:48:28;;;;;;;4.32;1.45;;;;;;;8.69;76.77;98497.34;5018908;28;20392;-72
2021/05/04 06:50:56;;;;;;;8.60;1.40;;;;;;;8.74;76.59;98504.94;5018878;28;20062;-72
2021/05/04 06:53:22;;;;;;;2.03;1.20;;;;;;;8.75;76.13;98491.53;5018819;28;20505;-72
2021/05/04 06:55:48;;;;;;;4.30;1.15;;;;;;;8.81;76.22;98512.31;5018747;28;20057;-71
2021/05/04 06:58:14;;;;;;;1.83;1.20;;;;;;;8.86;75.75;98492.47;5017845;28;20049;-69
2021/05/04 07:00:40;;;;;;;3.80;1.20;;;;;;;8.86;76.24;98511.09;5033543;28;20061;-70
2021/05/04 07:03:07;;;;;;;3.67;1.40;;;;;;;8.91;75.84;98516.91;5017609;28;20386;-70
2021/05/04 07:05:33;;;;;;;2.40;1.05;;;;;;;8.84;76.38;98505.91;5018619;28;20057;-71
2021/05/04 07:07:59;;;;;;;2.97;1.30;;;;;;;8.87;76.50;98515.47;5018561;28;20104;-71
2021/05/04 07:10:25;;;;;;;1.75;1.55;;;;;;;8.95;75.51;98486.44;5033753;28;20053;-72
2021/05/04 07:12:52;;;;;;;1.48;1.13;;;;;;;9.06;76.66;98499.69;5017738;28;20050;-71
2021/05/04 07:15:18;;;;;;;2.45;1.30;;;;;;;8.88;77.54;98485.22;5018306;28;20104;-69
2021/05/04 07:17:45;;;;;;;1.20;1.10;;;;;;;8.85;78.33;98494.31;5018538;28;20081;-70
2021/05/04 07:20:12;;;;;;;1.42;1.17;;;;;;;8.77;77.78;98478.94;5018179;28;20427;-70
2021/05/04 07:22:38;;;;;;;3.17;1.42;;;;;;;8.71;77.62;98476.78;5018161;28;20129;-71
2021/05/04 07:25:05;;;;;;;2.13;1.13;;;;;;;8.79;77.66;98489.47;5017237;28;20141;-71
2021/05/04 07:27:32;;;;;;;2.45;1.23;;;;;;;8.83;78.68;98489.09;5017702;28;20049;-72
2021/05/04 07:29:59;;;;;;;3.75;1.20;;;;;;;8.71;78.71;98506.03;5033649;28;20137;-70
2021/05/04 07:32:25;;;;;;;4.40;1.30;;;;;;;8.56;81.79;98495.66;5018086;28;20061;-71
2021/05/04 07:34:53;;;;;;;3.90;1.45;;;;;;;8.39;84.23;98515.56;5018026;28;20062;-72
2021/05/04 07:37:19;;;;;;;2.83;1.67;;;;;;;8.23;85.47;98526.56;5018008;28;20045;-71
2021/05/04 07:39:45;;;;;;;3.17;1.63;;;;;;;8.14;86.77;98520.16;5017793;28;20140;-70
2021/05/04 07:42:12;;;;;;;4.45;1.70;;;;;;;8.09;86.61;98521.47;5018003;28;20061;-72
2021/05/04 07:44:40;;;;;;;4.53;1.67;;;;;;;8.06;86.46;98522.56;5018014;28;20073;-70
2021/05/04 07:47:06;;;;;;;1.92;1.33;;;;;;;8.04;85.90;98524.50;5017900;28;20050;-72
2021/05/04 07:49:46;;;;;;;4.13;1.70;;;;;;;8.06;87.03;98533.19;5017807;28;20100;-71
2021/05/04 07:52:14;;;;;;;2.30;1.40;;;;;;;7.97;88.35;98544.53;5019840;28;20046;-71
2021/05/04 07:54:42;;;;;;;3.15;1.83;;;;;;;7.87;90.39;98539.91;5017922;28;20113;-70
2021/05/04 07:57:09;;;;;;;1.98;1.77;;;;;;;7.71;92.01;98542.88;5017651;28;20056;-72
2021/05/04 07:59:35;;;;;;;7.43;2.40;;;;;;;7.66;93.03;98539.72;5017656;28;20375;-72
2021/05/04 08:02:02;;;;;;;5.38;2.20;;;;;;;7.67;94.71;98541.41;5017145;28;20412;-70
2021/05/04 08:04:30;;;;;;;5.32;1.83;;;;;;;7.70;94.59;98519.09;5017576;28;20144;-74
2021/05/04 08:06:59;;;;;;;4.55;2.08;;;;;;;7.74;94.37;98525.88;5032441;28;20054;-73
2021/05/04 08:09:27;;;;;;;4.07;2.10;;;;;;;7.69;93.66;98518.22;5017360;28;20098;-70
2021/05/04 08:11:53;;;;;;;5.57;2.10;;;;;;;7.74;94.21;98502.81;5032836;28;20450;-70
2021/05/04 08:14:21;;;;;;;3.53;1.63;;;;;;;7.81;93.50;98486.41;5017526;28;20049;-72
2021/05/04 08:16:47;;;;;;;5.30;2.30;;;;;;;7.88;93.87;98493.78;5017287;28;20435;-71
2021/05/04 08:19:14;;;;;;;5.28;2.10;;;;;;;7.91;93.66;98476.78;5017133;28;20089;-72
2021/05/04 08:21:43;;;;;;;4.07;2.13;;;;;;;8.07;94.10;98491.53;5016004;28;20424;-70
2021/05/04 08:24:11;;;;;;;3.75;1.85;;;;;;;8.06;93.07;98488.00;5032460;28;20144;-72
2021/05/04 08:26:39;;;;;;;5.53;2.17;;;;;;;8.19;92.66;98474.63;5016202;28;20053;-72
2021/05/04 08:29:05;;;;;;;5.05;1.80;;;;;;;8.37;91.92;98460.84;5017114;28;20367;-71
2021/05/04 08:31:33;;;;;;;3.30;1.90;;;;;;;8.56;91.41;98421.22;5016984;28;20045;-73
2021/05/04 08:34:01;;;;;;;6.47;2.40;;;;;;;8.70;91.19;98467.13;5017175;28;20046;-72
2021/05/04 08:36:27;;;;;;;7.43;2.63;;;;;;;8.97;91.04;98468.50;5016898;28;20062;-72
2021/05/04 08:38:54;;;;;;;6.63;1.83;;;;;;;9.22;89.22;98474.50;5016467;28;20058;-71
2021/05/04 08:41:21;;;;;;;3.03;1.58;;;;;;;9.25;86.42;98490.19;4998908;28;20177;-69
2021/05/04 08:43:48;;;;;;;4.28;1.50;;;;;;;9.33;85.55;98493.06;5016802;28;20054;-72
2021/05/04 08:46:15;;;;;;;2.42;1.38;;;;;;;9.29;85.22;98518.25;5016657;28;20061;-72
2021/05/04 08:48:43;;;;;;;5.82;1.88;;;;;;;9.29;84.22;98486.31;5016817;28;20053;-70
2021/05/04 08:51:12;;;;;;;6.47;1.55;;;;;;;9.31;84.09;98492.34;5016764;28;20053;-70
2021/05/04 08:53:59;;;;;;;3.15;1.40;;;;;;;9.35;83.20;98482.28;5016560;28;20403;-72
2021/05/04 08:56:25;;;;;;;3.28;1.67;;;;;;;9.46;83.82;98478.72;5016492;28;20058;-72
2021/05/04 08:58:51;;;;;;;5.38;1.60;;;;;;;9.55;85.02;98477.97;5016393;28;20058;-72
2021/05/04 09:01:18;;;;;;;8.15;1.63;;;;;;;9.68;82.33;98488.44;5016381;28;20061;-72
2021/05/04 09:03:47;;;;;;;4.47;1.48;;;;;;;9.77;80.71;98489.47;5016471;28;20104;-71
2021/05/04 09:06:26;;;;;;;3.80;1.40;;;;;;;9.73;81.95;98485.38;5015172;28;20049;-71
2021/05/04 09:09:03;;;;;;;3.60;1.42;;;;;;;9.63;83.94;98477.31;5016330;28;20343;-73
2021/05/04 09:20:05;;;;;;;8.82;2.05;;;;;;;9.30;87.22;98490.66;5016179;28;20089;-72
2021/05/04 09:22:43;;;;;;;10.13;2.03;;;;;;;8.99;91.38;98501.16;5014952;28;20071;-74
2021/05/04 09:25:36;;;;;;;8.88;3.17;;;;;;;8.73;92.32;98509.44;5015101;28;20046;-74
2021/05/04 09:28:09;;;;;;;11.30;2.50;;;;;;;8.82;94.29;98507.84;5016491;28;20424;-73
2021/05/04 09:30:36;;;;;;;8.20;2.40;;;;;;;8.83;93.48;98488.28;5016089;28;20061;-72
2021/05/04 09:33:07;;;;;;;11.63;3.35;;;;;;;8.83;94.08;98496.25;5016056;28;20046;-71
2021/05/04 09:35:34;;;;;;;10.48;2.53;;;;;;;8.79;94.00;98476.19;5015827;28;20065;-71
2021/05/04 09:38:08;;;;;;;8.85;2.40;;;;;;;8.83;92.73;98473.13;5015825;28;20057;-72
2021/05/04 09:40:40;;;;;;;3.97;1.60;;;;;;;9.01;91.95;98488.59;5015866;28;20056;-73
2021/05/04 09:43:27;;;;;;;4.93;1.80;;;;;;;9.16;92.32;98497.09;5015928;28;20351;-73
2021/05/04 09:45:55;;;;;;;9.05;2.20;;;;;;;9.45;91.85;98504.53;5014529;28;20054;-71
2021/05/04 09:48:33;;;;;;;4.85;1.80;;;;;;;9.82;89.51;98495.28;5014555;28;20077;-71
2021/05/04 09:51:11;;;;;;;5.07;1.98;;;;;;;10.10;88.39;98492.03;5014260;28;20424;-70
2021/05/04 09:56:36;;;;;;;4.55;1.67;;;;;;;10.18;85.95;98511.75;5015518;28;20108;-73
2021/05/04 09:59:04;;;;;;;8.93;2.03;;;;;;;10.16;82.43;98497.72;5015441;28;20046;-72
2021/05/04 10:01:32;;;;;;;9.48;2.10;;;;;;;10.04;81.94;98522.75;5015327;28;20057;-73
2021/05/04 10:04:00;;;;;;;12.40;2.28;;;;;;;10.14;82.45;98518.31;5014511;28;20046;-71
2021/05/04 10:06:27;;;;;;;7.82;1.90;;;;;;;10.30;80.59;98517.84;5014539;28;20100;-73
2021/05/04 10:08:53;;;;;;;15.40;2.10;;;;;;;10.40;78.66;98539.22;5015363;28;20072;-71
2021/05/04 10:11:22;;;;;;;19.33;2.42;;;;;;;10.42;75.36;98528.44;5015452;28;20054;-72
2021/05/04 10:13:53;;;;;;;14.60;2.38;;;;;;;10.55;74.49;98513.06;5015354;28;20049;-70
2021/05/04 10:16:28;;;;;;;10.23;2.40;;;;;;;10.81;72.67;98525.09;5015570;28;20054;-72
2021/05/04 10:19:05;;;;;;;9.77;2.83;;;;;;;10.97;71.22;98525.44;5015302;28;20057;-72
2021/05/04 10:21:32;;;;;;;15.60;2.80;;;;;;;11.23;70.82;98516.88;5015261;28;20049;-72
2021/05/04 10:23:58;;;;;;;15.25;2.90;;;;;;;11.19;71.34;98518.16;5015244;28;20064;-73
2021/05/04 10:26:27;;;;;;;18.20;2.10;;;;;;;11.00;69.80;98511.81;5015323;28;20061;-73
2021/05/04 10:28:58;;;;;;;7.57;2.00;;;;;;;10.82;69.89;98516.09;5015438;28;20061;-72
2021/05/04 10:31:40;;;;;;;15.35;2.42;;;;;;;10.82;70.47;98565.00;5015306;28;20447;-73
2021/05/04 10:34:31;;;;;;;11.82;2.10;;;;;;;10.66;70.57;98536.13;5015764;28;20455;-72
2021/05/04 10:36:58;;;;;;;;;;;;;;;10.59;66.38;98545.66;5014626;28;20501;-71
2021/05/04 10:39:39;;;;;;;14.57;2.50;;;;;;;10.64;65.77;98558.59;5015165;28;19925;-73
2021/05/04 10:42:07;;;;;;;16.23;2.45;;;;;;;10.53;66.09;98571.06;5015133;28;20461;-72
2021/05/04 10:44:53;;;;;;;9.95;2.50;;;;;;;10.58;68.48;98594.66;5015165;28;20045;-72
2021/05/04 10:47:42;;;;;;;15.32;3.45;;;;;;;10.54;69.19;98574.56;5014333;28;20124;-70
2021/05/04 10:50:12;;;;;;;14.48;2.53;;;;;;;10.46;68.32;98589.41;5015311;28;20056;-72
2021/05/04 10:52:55;;;;;;;13.18;2.30;;;;;;;10.74;66.79;98602.19;5015110;28;20100;-72
2021/05/04 10:55:24;;;;;;;24.58;2.60;;;;;;;10.85;66.49;98593.25;5015008;28;20289;-73
2021/05/04 10:58:08;;;;;;;16.08;2.72;;;;;;;10.77;66.59;98585.91;5013916;28;20419;-72
2021/05/04 11:00:53;;;;;;;19.48;3.67;;;;;;;11.03;65.46;98584.56;5015212;28;20050;-72
2021/05/04 11:03:35;;;;;;;20.25;2.70;;;;;;;11.24;65.65;98600.53;5015056;28;20058;-71
2021/05/04 11:06:31;;;;;;;15.30;2.80;;;;;;;11.30;63.45;98591.13;5018529;28;20057;-73
2021/05/04 11:08:57;;;;;;;16.70;3.03;;;;;;;11.20;62.61;98597.28;5017166;28;20049;-71
2021/05/04 11:11:33;;;;;;;14.23;3.13;;;;;;;11.16;61.95;98627.06;5018475;28;20451;-72
2021/05/04 11:14:01;;;;;;;10.52;2.30;;;;;;;11.06;62.20;98621.69;5018492;28;20074;-71
2021/05/04 11:16:31;;;;;;;18.92;2.47;;;;;;;11.05;62.28;98617.34;5018522;28;20073;-72
2021/05/04 11:19:17;;;;;;;13.77;3.55;;;;;;;11.60;60.07;98632.09;5018385;28;20382;-72
2021/05/04 11:21:45;;;;;;;12.93;2.58;;;;;;;11.68;57.26;98629.59;5018238;28;20498;-72
2021/05/04 11:24:11;;;;;;;14.25;2.60;;;;;;;11.52;58.45;98627.44;5017996;28;20156;-70
2021/05/04 11:26:46;;;;;;;10.30;2.95;;;;;;;11.64;59.27;98625.47;5017023;28;20339;-72
2021/05/04 11:29:16;;;;;;;16.58;2.95;;;;;;;11.86;59.53;98628.88;5018218;28;20129;-73
2021/05/04 11:31:45;;;;;;;19.27;2.92;;;;;;;11.62;58.87;98636.34;5018197;28;20050;-73
2021/05/04 11:34:40;;;;;;;22.92;2.85;;;;;;;11.64;59.61;98636.19;5018172;28;20050;-72
2021/05/04 11:37:35;;;;;;;13.75;2.25;;;;;;;11.65;60.75;98645.88;5018603;28;20351;-71
2021/05/04 11:40:08;;;;;;;9.85;2.50;;;;;;;11.88;59.11;98642.97;5017948;28;20062;-71
2021/05/04 11:42:39;;;;;;;14.98;2.13;;;;;;;12.19;57.56;98630.31;5017800;28;20092;-72
2021/05/04 11:45:07;;;;;;;11.27;2.60;;;;;;;12.55;56.87;98644.91;5016928;28;20062;-71
2021/05/04 11:47:35;;;;;;;11.52;2.53;;;;;;;12.58;55.90;98640.13;5018966;28;20060;-72
2021/05/04 11:50:09;;;;;;;11.32;2.65;;;;;;;12.45;56.31;98624.38;5016757;28;20056;-71
2021/05/04 11:52:36;;;;;;;10.85;2.08;;;;;;;12.42;57.64;98640.72;5016670;28;20554;-73
2021/05/04 11:55:09;;;;;;;14.30;2.53;;;;;;;12.55;55.61;98655.63;5017594;28;20049;-72